Time;durP1;ratioP1;P1;durP2;ratioP2;P2;SDS_P1;SDS_P2;PMS_P1;PMS_P2;Temp;Humidity;BMP_temperature;BMP_pressure;BME280_temperature;BME280_humidity;BME280_pressure;Samples;Min_cycle;Max_cycle;Signal;HPM_P1;HPM_P2
2023/03/06 00:00:37;;;;;;;16.10;10.27;;;20.90;99.90;;;;;;5028402;28;20042;-51
2023/03/06 00:03:03;;;;;;;14.20;10.43;;;20.90;99.90;;;;;;5029915;28;20122;-51
2023/03/06 00:05:29;;;;;;;15.25;10.15;;;20.90;99.90;;;;;;5030765;28;20474;-50
2023/03/06 00:07:55;;;;;;;16.13;10.55;;;20.90;99.90;;;;;;5030166;28;20090;-50
2023/03/06 00:10:27;;;;;;;14.60;9.70;;;20.80;99.90;;;;;;5028439;28;20033;-50
2023/03/06 00:12:55;;;;;;;13.98;9.63;;;20.80;99.90;;;;;;5031930;28;20025;-50
2023/03/06 00:15:22;;;;;;;16.08;10.07;;;20.90;99.90;;;;;;5031643;28;20116;-50
2023/03/06 00:17:47;;;;;;;18.30;10.23;;;20.80;99.90;;;;;;5027140;28;20036;-50
2023/03/06 00:20:14;;;;;;;14.60;8.65;;;20.80;99.90;;;;;;5029681;28;20401;-50
2023/03/06 00:22:40;;;;;;;14.35;9.23;;;20.80;99.90;;;;;;5031194;28;20036;-50
2023/03/06 00:25:08;;;;;;;14.18;9.50;;;20.80;99.90;;;;;;5030460;28;20444;-50
2023/03/06 00:27:33;;;;;;;16.33;9.70;;;20.80;99.90;;;;;;5030725;28;20385;-50
2023/03/06 00:30:00;;;;;;;16.00;9.65;;;20.80;99.90;;;;;;5030311;28;20031;-50
2023/03/06 00:32:27;;;;;;;18.48;9.63;;;20.80;99.90;;;;;;5027722;28;20052;-50
2023/03/06 00:34:54;;;;;;;14.75;8.50;;;20.80;99.90;;;;;;5030740;28;20435;-50
2023/03/06 00:37:21;;;;;;;12.87;7.80;;;20.80;99.90;;;;;;5031148;28;20513;-50
2023/03/06 00:39:48;;;;;;;12.98;8.43;;;20.80;99.90;;;;;;5030423;28;20485;-50
2023/03/06 00:42:18;;;;;;;13.30;8.90;;;20.80;99.90;;;;;;5030758;28;20029;-49
2023/03/06 00:44:44;;;;;;;12.80;8.25;;;20.80;99.90;;;;;;5027980;28;20025;-50
2023/03/06 00:47:10;;;;;;;13.55;8.23;;;20.80;99.90;;;;;;5030480;28;20029;-49
2023/03/06 00:49:36;;;;;;;14.75;8.27;;;20.80;99.90;;;;;;5030460;28;20028;-49
2023/03/06 00:52:02;;;;;;;14.68;9.52;;;20.80;99.90;;;;;;5030712;28;20025;-50
2023/03/06 00:54:28;;;;;;;13.70;8.48;;;20.80;99.90;;;;;;5030539;28;20033;-49
2023/03/06 00:56:53;;;;;;;12.00;8.18;;;20.80;99.90;;;;;;5030148;28;20032;-50
2023/03/06 00:59:19;;;;;;;11.55;8.13;;;20.80;99.90;;;;;;5030596;28;20121;-50
2023/03/06 01:01:45;;;;;;;11.48;8.18;;;20.80;99.90;;;;;;5030212;28;20363;-49
2023/03/06 01:04:11;;;;;;;11.80;8.48;;;20.80;99.90;;;;;;5030657;28;20022;-50
2023/03/06 01:06:37;;;;;;;13.18;8.45;;;20.80;99.90;;;;;;5029280;28;20459;-49
2023/03/06 01:09:03;;;;;;;15.07;8.48;;;20.80;99.90;;;;;;5029948;28;20025;-49
2023/03/06 01:11:30;;;;;;;11.13;7.45;;;20.80;99.90;;;;;;5029914;28;20060;-49
2023/03/06 01:13:56;;;;;;;13.82;8.48;;;20.80;99.90;;;;;;5029116;28;20032;-51
2023/03/06 01:16:22;;;;;;;11.88;7.45;;;20.80;99.90;;;;;;5027069;28;20052;-50
2023/03/06 01:18:48;;;;;;;12.27;7.88;;;20.80;99.90;;;;;;5030003;28;20057;-49
2023/03/06 01:21:14;;;;;;;11.35;7.95;;;20.80;99.90;;;;;;5028374;28;20041;-49
2023/03/06 01:23:40;;;;;;;9.35;7.00;;;20.80;99.90;;;;;;5029190;28;20429;-49
2023/03/06 01:26:06;;;;;;;12.45;7.95;;;20.70;99.90;;;;;;5029959;28;20028;-49
2023/03/06 01:28:33;;;;;;;11.20;7.60;;;20.80;99.90;;;;;;5029888;28;20026;-50
2023/03/06 01:31:00;;;;;;;11.82;7.53;;;20.70;99.90;;;;;;5028205;28;20029;-50
2023/03/06 01:33:26;;;;;;;8.80;6.72;;;20.70;99.90;;;;;;5030247;28;20391;-48
2023/03/06 01:35:52;;;;;;;11.52;7.57;;;20.70;99.90;;;;;;5029174;28;20019;-49
2023/03/06 01:38:18;;;;;;;9.68;6.82;;;20.80;99.90;;;;;;5029752;28;20021;-50
2023/03/06 01:40:44;;;;;;;10.10;6.80;;;20.70;99.90;;;;;;5029595;28;20482;-50
2023/03/06 01:43:32;;;;;;;10.57;7.68;;;20.70;99.90;;;;;;5030230;28;20364;-49
2023/03/06 01:46:22;;;;;;;9.82;6.95;;;20.70;99.90;;;;;;5029786;28;20033;-48
2023/03/06 01:49:09;;;;;;;10.82;7.15;;;20.70;99.90;;;;;;5028897;28;20029;-48
2023/03/06 01:52:01;;;;;;;10.93;7.97;;;20.70;99.90;;;;;;5029088;28;20787;-51
2023/03/06 01:54:48;;;;;;;9.20;6.47;;;20.70;99.90;;;;;;5029696;28;20018;-50
2023/03/06 01:57:31;;;;;;;;;;;20.70;99.90;;;;;;5030232;28;20021;-50
2023/03/06 02:00:06;;;;;;;8.73;6.40;;;20.70;99.90;;;;;;5029302;28;19975;-50
2023/03/06 02:02:32;;;;;;;9.30;6.85;;;20.70;99.90;;;;;;5011383;28;20069;-50
2023/03/06 02:05:00;;;;;;;16.90;7.97;;;20.70;99.90;;;;;;5009951;28;20050;-50
2023/03/06 02:07:28;;;;;;;8.63;5.90;;;20.70;99.90;;;;;;5011436;28;20065;-50
2023/03/06 02:09:53;;;;;;;9.52;6.07;;;20.70;99.90;;;;;;5011171;28;20467;-50
2023/03/06 02:12:20;;;;;;;10.82;5.97;;;20.70;99.90;;;;;;5021841;28;20060;-50
2023/03/06 02:14:47;;;;;;;11.30;6.32;;;20.70;99.90;;;;;;5031532;28;20485;-51
2023/03/06 02:17:15;;;;;;;10.88;6.82;;;20.60;99.90;;;;;;5031765;28;20099;-50
2023/03/06 02:19:59;;;;;;;9.35;6.15;;;20.60;99.90;;;;;;5031689;28;20056;-50
2023/03/06 02:22:33;;;;;;;10.70;5.50;;;20.60;99.90;;;;;;5031417;28;20030;-51
2023/03/06 02:25:12;;;;;;;9.05;5.97;;;20.60;99.90;;;;;;5031497;28;20112;-50
2023/03/06 02:27:39;;;;;;;10.10;5.72;;;20.60;99.90;;;;;;5031315;28;20013;-51
2023/03/06 02:30:07;;;;;;;9.48;6.15;;;20.60;99.90;;;;;;5031476;28;20045;-50
2023/03/06 02:32:33;;;;;;;9.68;5.22;;;20.60;99.90;;;;;;5031136;28;20083;-50
2023/03/06 02:34:58;;;;;;;10.88;5.63;;;20.60;99.90;;;;;;5031332;28;20030;-50
2023/03/06 02:37:26;;;;;;;7.68;6.05;;;20.60;99.90;;;;;;5030038;28;20381;-50
2023/03/06 02:40:08;;;;;;;9.85;6.15;;;20.60;99.90;;;;;;5032194;28;20415;-50
2023/03/06 02:42:34;;;;;;;8.50;5.68;;;20.50;99.90;;;;;;5034920;28;20052;-50
2023/03/06 02:45:02;;;;;;;7.80;5.82;;;20.60;99.90;;;;;;5035078;28;20381;-51
2023/03/06 02:47:28;;;;;;;9.60;6.05;;;20.50;99.90;;;;;;5034881;28;20029;-50
2023/03/06 02:49:53;;;;;;;8.43;5.65;;;20.50;99.90;;;;;;5035134;28;20021;-50
2023/03/06 02:52:19;;;;;;;8.15;5.45;;;20.50;99.90;;;;;;5035087;28;20032;-50
2023/03/06 02:54:45;;;;;;;7.55;5.50;;;20.50;99.90;;;;;;5034963;28;20367;-50
2023/03/06 02:57:11;;;;;;;7.82;5.05;;;20.50;99.90;;;;;;5034548;28;20033;-50
2023/03/06 02:59:37;;;;;;;7.63;5.72;;;20.50;99.90;;;;;;5035136;28;20381;-50
2023/03/06 03:02:03;;;;;;;8.70;5.70;;;20.50;99.90;;;;;;5034718;28;20049;-50
2023/03/06 03:04:28;;;;;;;8.50;5.03;;;20.50;99.90;;;;;;5034482;28;20025;-50
2023/03/06 03:06:54;;;;;;;7.53;5.38;;;20.50;99.90;;;;;;5034875;28;20091;-49
2023/03/06 03:09:20;;;;;;;7.93;4.97;;;20.40;99.90;;;;;;5034483;28;20025;-50
2023/03/06 03:11:46;;;;;;;8.50;5.22;;;20.40;99.90;;;;;;5034550;28;20041;-50
2023/03/06 03:14:11;;;;;;;8.55;5.13;;;20.50;99.90;;;;;;5034326;28;20091;-49
2023/03/06 03:16:37;;;;;;;9.65;5.38;;;20.40;99.90;;;;;;5034540;28;20393;-51
2023/03/06 03:19:03;;;;;;;6.90;4.93;;;20.40;99.90;;;;;;5034428;28;20327;-50
2023/03/06 03:21:29;;;;;;;6.68;4.80;;;20.40;99.90;;;;;;5034414;28;20455;-50
2023/03/06 03:23:54;;;;;;;6.88;4.50;;;20.40;99.90;;;;;;5034289;28;20026;-50
2023/03/06 03:26:21;;;;;;;8.13;5.72;;;20.40;99.90;;;;;;5034184;28;20029;-50
2023/03/06 03:28:47;;;;;;;6.28;4.72;;;20.40;99.90;;;;;;5034542;28;20022;-49
2023/03/06 03:31:13;;;;;;;7.85;4.90;;;20.40;99.90;;;;;;5034237;28;20035;-50
2023/03/06 03:33:40;;;;;;;7.57;4.68;;;20.40;99.90;;;;;;5034198;28;20028;-50
2023/03/06 03:36:06;;;;;;;7.57;4.65;;;20.40;99.90;;;;;;5033966;28;20053;-49
2023/03/06 03:38:33;;;;;;;8.68;5.47;;;20.40;99.90;;;;;;5033952;28;20025;-50
2023/03/06 03:41:02;;;;;;;7.05;4.68;;;20.30;99.90;;;;;;5033673;28;20033;-51
2023/03/06 03:43:28;;;;;;;7.35;4.80;;;20.30;99.90;;;;;;5034107;28;20083;-50
2023/03/06 03:45:54;;;;;;;5.32;4.07;;;20.30;99.90;;;;;;5033730;28;20041;-50
2023/03/06 03:48:20;;;;;;;6.68;4.45;;;20.30;99.90;;;;;;5034112;28;20029;-50
2023/03/06 03:50:45;;;;;;;5.38;4.20;;;20.30;99.90;;;;;;5033408;28;20029;-50
2023/03/06 03:53:11;;;;;;;6.07;4.38;;;20.30;99.90;;;;;;5033615;28;20104;-50
2023/03/06 03:55:37;;;;;;;6.80;4.97;;;20.30;99.90;;;;;;5033868;28;20032;-50
2023/03/06 03:58:03;;;;;;;8.90;5.45;;;20.30;99.90;;;;;;5032445;28;20053;-50
2023/03/06 04:00:29;;;;;;;7.70;4.88;;;20.30;99.90;;;;;;5034107;28;20068;-50
2023/03/06 04:02:54;;;;;;;8.20;5.10;;;20.30;99.90;;;;;;5033708;28;20476;-50
2023/03/06 04:05:20;;;;;;;7.13;4.07;;;20.30;99.90;;;;;;5033632;28;20034;-49
2023/03/06 04:07:46;;;;;;;5.72;4.30;;;20.20;99.90;;;;;;5033530;28;20163;-50
2023/03/06 04:10:12;;;;;;;6.00;4.50;;;20.30;99.90;;;;;;5033477;28;20056;-50
2023/03/06 04:12:38;;;;;;;7.70;4.78;;;20.20;99.90;;;;;;5033491;28;20029;-50
2023/03/06 04:15:06;;;;;;;9.25;4.75;;;20.20;99.90;;;;;;5033424;28;20029;-50
2023/03/06 04:17:33;;;;;;;5.70;4.07;;;20.20;99.90;;;;;;5033194;28;20021;-50
2023/03/06 04:20:01;;;;;;;5.57;4.10;;;20.20;99.90;;;;;;5033199;28;20548;-50
2023/03/06 04:22:27;;;;;;;6.65;4.13;;;20.20;99.90;;;;;;5033054;28;20041;-51
2023/03/06 04:24:53;;;;;;;6.80;4.43;;;20.20;99.90;;;;;;5033424;28;20033;-50
2023/03/06 04:27:18;;;;;;;6.72;4.50;;;20.20;99.90;;;;;;5033224;28;20030;-50
2023/03/06 04:29:44;;;;;;;6.53;4.40;;;20.20;99.90;;;;;;5033147;28;20022;-50
2023/03/06 04:32:10;;;;;;;6.32;4.60;;;20.20;99.90;;;;;;5032962;28;20022;-50
2023/03/06 04:34:36;;;;;;;6.35;4.63;;;20.20;99.90;;;;;;5032916;28;20093;-50
2023/03/06 04:37:01;;;;;;;7.65;5.63;;;20.20;99.90;;;;;;5032915;28;20025;-50
2023/03/06 04:39:27;;;;;;;5.82;4.60;;;20.10;99.90;;;;;;5032606;28;20113;-50
2023/03/06 04:41:53;;;;;;;6.82;4.50;;;20.10;99.90;;;;;;5033054;28;20044;-50
2023/03/06 04:44:19;;;;;;;6.82;4.10;;;20.10;99.90;;;;;;5033072;28;20018;-50
2023/03/06 04:46:44;;;;;;;7.97;4.72;;;20.10;99.90;;;;;;5033138;28;20021;-51
2023/03/06 04:49:10;;;;;;;7.60;4.68;;;20.10;99.90;;;;;;5032720;28;20095;-50
2023/03/06 04:51:36;;;;;;;6.63;4.60;;;20.10;99.90;;;;;;5032857;28;20025;-50
2023/03/06 04:54:03;;;;;;;6.70;4.47;;;20.10;99.90;;;;;;5032738;28;20017;-50
2023/03/06 04:56:29;;;;;;;8.25;5.30;;;20.10;99.90;;;;;;5032864;28;20018;-50
2023/03/06 04:58:55;;;;;;;8.00;5.18;;;20.10;99.90;;;;;;5032702;28;20017;-50
2023/03/06 05:01:21;;;;;;;8.50;5.25;;;20.10;99.90;;;;;;5033124;28;20056;-50
2023/03/06 05:03:48;;;;;;;8.00;5.20;;;20.10;99.90;;;;;;5032536;28;20021;-50
2023/03/06 05:06:14;;;;;;;7.00;5.00;;;20.10;99.90;;;;;;5032445;28;20021;-50
2023/03/06 05:08:40;;;;;;;7.03;4.90;;;20.10;99.90;;;;;;5032569;28;20022;-50
2023/03/06 05:11:06;;;;;;;6.68;4.88;;;20.10;99.90;;;;;;5032533;28;20151;-50
2023/03/06 05:13:32;;;;;;;6.90;4.72;;;20.10;99.90;;;;;;5032584;28;20466;-50
2023/03/06 05:16:05;;;;;;;5.47;4.32;;;20.00;99.90;;;;;;5032343;28;20030;-50
2023/03/06 05:18:33;;;;;;;6.45;4.50;;;20.00;99.90;;;;;;5032380;28;20378;-50
2023/03/06 05:21:00;;;;;;;8.48;4.88;;;20.00;99.90;;;;;;5032186;28;20056;-50
2023/03/06 05:23:26;;;;;;;6.55;4.55;;;20.00;99.90;;;;;;5031203;28;20100;-50
2023/03/06 05:25:52;;;;;;;7.33;4.80;;;20.00;99.90;;;;;;5031275;28;20087;-50
2023/03/06 05:28:18;;;;;;;6.78;4.85;;;20.00;99.90;;;;;;5032350;28;20037;-50
2023/03/06 05:30:44;;;;;;;7.82;4.85;;;20.00;99.90;;;;;;5032149;28;20032;-49
2023/03/06 05:33:10;;;;;;;9.82;5.50;;;20.00;99.90;;;;;;5032147;28;20029;-50
2023/03/06 05:35:36;;;;;;;7.25;4.65;;;20.00;99.90;;;;;;5032378;28;20025;-50
2023/03/06 05:38:01;;;;;;;8.63;4.82;;;20.00;99.90;;;;;;5032139;28;20079;-50
2023/03/06 05:40:27;;;;;;;6.32;4.75;;;20.00;99.90;;;;;;5032139;28;20033;-50
2023/03/06 05:42:53;;;;;;;11.40;5.38;;;20.00;99.90;;;;;;5031986;28;20075;-50
2023/03/06 05:45:19;;;;;;;9.38;5.55;;;20.00;99.90;;;;;;5032073;28;20488;-50
2023/03/06 05:47:45;;;;;;;10.55;6.40;;;19.90;99.90;;;;;;5031790;28;20060;-50
2023/03/06 05:50:12;;;;;;;8.60;5.35;;;20.00;99.90;;;;;;5032075;28;20032;-50
2023/03/06 05:52:39;;;;;;;9.32;5.50;;;19.90;99.90;;;;;;5031908;28;20021;-50
2023/03/06 05:55:05;;;;;;;9.48;5.90;;;20.00;99.90;;;;;;5031860;28;20397;-50
2023/03/06 05:57:31;;;;;;;10.38;6.30;;;20.00;99.90;;;;;;5031796;28;20029;-49
2023/03/06 05:59:56;;;;;;;7.20;4.85;;;20.00;99.90;;;;;;5032022;28;20486;-50
2023/03/06 06:02:22;;;;;;;7.18;4.85;;;20.00;99.90;;;;;;5031839;28;20084;-50
2023/03/06 06:04:48;;;;;;;7.15;5.18;;;19.90;99.90;;;;;;5031987;28;20026;-50
2023/03/06 06:07:15;;;;;;;7.78;4.72;;;19.90;99.90;;;;;;5031736;28;20028;-49
2023/03/06 06:09:44;;;;;;;8.07;5.47;;;19.90;99.90;;;;;;5018847;28;20013;-50
2023/03/06 06:12:10;;;;;;;7.93;5.60;;;19.90;99.90;;;;;;5031851;28;20049;-50
2023/03/06 06:14:36;;;;;;;7.13;4.85;;;19.90;99.90;;;;;;5035161;28;20373;-50
2023/03/06 06:17:02;;;;;;;10.05;5.28;;;19.90;99.90;;;;;;5035793;28;20029;-50
2023/03/06 06:19:29;;;;;;;7.60;4.95;;;19.90;99.90;;;;;;5034576;28;20469;-50
2023/03/06 06:21:56;;;;;;;6.55;4.35;;;19.90;99.90;;;;;;5035927;28;20033;-50
2023/03/06 06:24:24;;;;;;;6.18;4.78;;;19.90;99.90;;;;;;5035628;28;20036;-50
2023/03/06 06:26:53;;;;;;;7.30;4.85;;;19.90;99.90;;;;;;5035763;28;20025;-50
2023/03/06 06:29:19;;;;;;;8.05;5.35;;;19.90;99.90;;;;;;5035473;28;20018;-50
2023/03/06 06:31:45;;;;;;;6.40;4.57;;;19.90;99.90;;;;;;5035524;28;20017;-49
2023/03/06 06:34:12;;;;;;;7.35;4.93;;;19.90;99.90;;;;;;5035258;28;20022;-49
2023/03/06 06:36:38;;;;;;;7.03;4.22;;;19.90;99.90;;;;;;5035531;28;20056;-49
2023/03/06 06:39:05;;;;;;;7.05;4.30;;;19.90;99.90;;;;;;5035305;28;20025;-49
2023/03/06 06:41:31;;;;;;;7.07;4.50;;;19.90;99.90;;;;;;5035277;28;20037;-50
2023/03/06 06:43:57;;;;;;;6.50;4.38;;;19.90;99.90;;;;;;5035403;28;20099;-49
2023/03/06 06:46:23;;;;;;;6.15;4.35;;;19.90;99.90;;;;;;5035312;28;20481;-50
2023/03/06 06:48:53;;;;;;;6.53;4.32;;;19.90;99.90;;;;;;5034952;28;20083;-49
2023/03/06 06:51:20;;;;;;;9.75;5.35;;;19.90;99.90;;;;;;5035129;28;20017;-49
2023/03/06 06:53:46;;;;;;;6.28;4.30;;;19.90;99.90;;;;;;5035002;28;20482;-49
2023/03/06 06:56:11;;;;;;;7.25;4.80;;;19.90;99.90;;;;;;5034895;28;20033;-49
2023/03/06 06:58:37;;;;;;;6.63;4.25;;;19.90;99.90;;;;;;5033705;28;20619;-49
2023/03/06 07:01:08;;;;;;;8.98;4.55;;;19.90;99.90;;;;;;5034683;28;20053;-49
2023/03/06 07:03:34;;;;;;;6.25;4.40;;;19.90;99.90;;;;;;5034943;28;20025;-49
2023/03/06 07:06:00;;;;;;;6.05;4.28;;;19.90;99.90;;;;;;5034817;28;20029;-49
2023/03/06 07:08:26;;;;;;;10.48;5.10;;;19.90;99.90;;;;;;5034864;28;20014;-49
2023/03/06 07:10:52;;;;;;;9.82;4.00;;;19.90;99.90;;;;;;5034671;28;20033;-50
2023/03/06 07:13:17;;;;;;;7.57;4.88;;;19.90;99.90;;;;;;5034676;28;20033;-49
2023/03/06 07:15:43;;;;;;;6.75;4.05;;;19.90;99.90;;;;;;5034640;28;20096;-49
2023/03/06 07:18:09;;;;;;;6.35;4.68;;;19.90;99.90;;;;;;5034708;28;20025;-49
2023/03/06 07:20:35;;;;;;;6.03;4.03;;;19.90;99.90;;;;;;5033525;28;20421;-49
2023/03/06 07:23:01;;;;;;;7.13;4.38;;;19.90;99.90;;;;;;5034873;28;20048;-49
2023/03/06 07:25:26;;;;;;;9.05;4.40;;;19.90;99.90;;;;;;5033585;28;20462;-49
2023/03/06 07:27:53;;;;;;;7.47;4.18;;;19.90;99.90;;;;;;5034208;28;20033;-49
2023/03/06 07:30:20;;;;;;;9.27;5.10;;;19.90;99.90;;;;;;5034405;28;20017;-49
2023/03/06 07:32:46;;;;;;;6.88;4.43;;;19.90;99.90;;;;;;5034280;28;20100;-50
2023/03/06 07:35:16;;;;;;;9.13;5.10;;;19.90;99.90;;;;;;5033094;28;20117;-50
2023/03/06 07:37:42;;;;;;;9.10;5.35;;;19.90;99.90;;;;;;5034099;28;20474;-49
2023/03/06 07:40:09;;;;;;;5.90;4.22;;;19.90;99.90;;;;;;5034243;28;20488;-50
2023/03/06 07:42:35;;;;;;;6.32;4.10;;;19.80;99.90;;;;;;5033696;28;20040;-50
2023/03/06 07:45:02;;;;;;;7.15;4.45;;;19.90;99.90;;;;;;5034378;28;20018;-49
2023/03/06 07:47:28;;;;;;;5.88;4.40;;;19.90;99.90;;;;;;5034113;28;20041;-50
2023/03/06 07:49:58;;;;;;;6.82;4.15;;;19.90;99.90;;;;;;5034134;28;20033;-50
2023/03/06 07:52:24;;;;;;;7.35;4.40;;;19.90;99.90;;;;;;5032576;28;20032;-50
2023/03/06 07:54:50;;;;;;;8.38;5.10;;;19.90;99.90;;;;;;5032503;28;20418;-49
2023/03/06 07:57:16;;;;;;;7.18;4.55;;;19.90;99.90;;;;;;5033685;28;20064;-49
2023/03/06 07:59:41;;;;;;;8.93;5.00;;;19.80;99.90;;;;;;5033653;28;20394;-49
2023/03/06 08:02:10;;;;;;;7.22;4.78;;;19.80;99.90;;;;;;5033638;28;20037;-49
2023/03/06 08:04:35;;;;;;;7.50;4.40;;;19.90;99.90;;;;;;5033755;28;20036;-50
2023/03/06 08:07:02;;;;;;;7.90;4.88;;;19.80;99.90;;;;;;5033686;28;20474;-50
2023/03/06 08:09:28;;;;;;;8.13;4.70;;;19.80;99.90;;;;;;5033410;28;20028;-50
2023/03/06 08:11:54;;;;;;;9.65;4.75;;;19.90;99.90;;;;;;5033564;28;20482;-50
2023/03/06 08:14:20;;;;;;;6.28;4.50;;;19.80;99.90;;;;;;5033271;28;20025;-50
2023/03/06 08:16:47;;;;;;;8.45;5.07;;;19.80;99.90;;;;;;5033466;28;20033;-49
2023/03/06 08:19:14;;;;;;;9.23;4.90;;;19.80;99.90;;;;;;5033406;28;20168;-49
2023/03/06 08:21:40;;;;;;;8.85;5.20;;;19.90;99.90;;;;;;5033272;28;20120;-49
2023/03/06 08:24:05;;;;;;;9.20;5.30;;;19.80;99.90;;;;;;5033410;28;20493;-49
2023/03/06 08:26:32;;;;;;;7.93;4.95;;;19.80;99.90;;;;;;5033483;28;20025;-49
2023/03/06 08:29:00;;;;;;;10.37;5.40;;;19.80;99.90;;;;;;5033149;28;20385;-49
2023/03/06 08:31:27;;;;;;;7.70;5.10;;;19.80;99.90;;;;;;5033392;28;20022;-49
2023/03/06 08:33:54;;;;;;;8.10;5.28;;;19.80;99.90;;;;;;5032998;28;20390;-49
2023/03/06 08:36:20;;;;;;;9.13;5.05;;;19.80;99.90;;;;;;5020272;28;20137;-49
2023/03/06 08:38:46;;;;;;;8.65;5.22;;;19.80;99.90;;;;;;5033394;28;20377;-50
2023/03/06 08:41:12;;;;;;;8.35;4.90;;;19.80;99.90;;;;;;5032794;28;20035;-49
2023/03/06 08:43:39;;;;;;;9.20;5.45;;;19.80;99.90;;;;;;5031837;28;20025;-49
2023/03/06 08:46:04;;;;;;;10.05;5.47;;;19.80;99.90;;;;;;5033078;28;20049;-49
2023/03/06 08:48:30;;;;;;;7.85;5.13;;;19.80;99.90;;;;;;5032820;28;20053;-49
2023/03/06 08:50:56;;;;;;;9.32;5.60;;;19.80;99.90;;;;;;5032674;28;20029;-49
2023/03/06 08:53:24;;;;;;;9.27;4.85;;;19.80;99.90;;;;;;5032831;28;20033;-50
2023/03/06 08:55:50;;;;;;;9.15;5.85;;;19.80;99.90;;;;;;5032671;28;20026;-49
2023/03/06 08:58:16;;;;;;;10.82;6.38;;;19.80;99.90;;;;;;5032810;28;20025;-50
2023/03/06 09:00:42;;;;;;;9.70;5.60;;;19.80;99.90;;;;;;5032431;28;20444;-49
2023/03/06 09:03:08;;;;;;;8.30;5.65;;;19.80;99.90;;;;;;5032806;28;20025;-49
2023/03/06 09:05:34;;;;;;;11.27;5.75;;;19.80;99.90;;;;;;5032515;28;20029;-48
2023/03/06 09:08:00;;;;;;;9.48;5.10;;;19.80;99.90;;;;;;5032460;28;20083;-49
2023/03/06 09:10:27;;;;;;;7.82;5.13;;;19.80;99.90;;;;;;5032554;28;20083;-50
2023/03/06 09:12:53;;;;;;;9.27;5.55;;;19.80;99.90;;;;;;5031164;28;20494;-50
2023/03/06 09:15:20;;;;;;;8.85;5.60;;;19.80;99.90;;;;;;5032328;28;20033;-49
2023/03/06 09:17:46;;;;;;;8.73;5.13;;;19.80;99.90;;;;;;5032122;28;20021;-50
2023/03/06 09:20:13;;;;;;;14.77;5.25;;;19.80;99.90;;;;;;5032265;28;20021;-49
2023/03/06 09:22:41;;;;;;;10.63;5.67;;;19.80;99.90;;;;;;5032188;28;20034;-50
2023/03/06 09:25:08;;;;;;;;;;;19.80;99.90;;;;;;5033101;28;21108;-50
2023/03/06 09:27:33;;;;;;;9.57;5.75;;;19.80;99.90;;;;;;5032294;28;20389;-50
2023/03/06 09:29:59;;;;;;;9.25;5.53;;;19.80;99.90;;;;;;5032031;28;20061;-49
2023/03/06 09:32:25;;;;;;;8.07;5.18;;;19.80;99.90;;;;;;5031977;28;20492;-50
2023/03/06 09:34:51;;;;;;;8.15;5.45;;;19.80;99.90;;;;;;5031942;28;20485;-50
2023/03/06 09:37:17;;;;;;;9.30;5.00;;;19.80;99.90;;;;;;5032034;28;20095;-49
2023/03/06 09:39:43;;;;;;;9.55;5.10;;;19.80;99.90;;;;;;5017894;28;20030;-50
2023/03/06 09:42:14;;;;;;;10.38;5.85;;;19.80;99.90;;;;;;5011890;28;20121;-50
2023/03/06 09:44:42;;;;;;;9.07;5.47;;;19.80;99.90;;;;;;5011636;28;20018;-50
2023/03/06 09:47:39;;;;;;;10.15;6.22;;;19.80;99.90;;;;;;5011690;28;20036;-49
2023/03/06 09:50:31;;;;;;;10.48;5.78;;;19.80;99.90;;;;;;5025475;28;20423;-50
2023/03/06 09:53:32;;;;;;;11.63;5.95;;;19.80;99.90;;;;;;5011698;28;20032;-50
2023/03/06 09:56:09;;;;;;;10.23;4.90;;;19.80;99.90;;;;;;5014481;28;20033;-50
2023/03/06 09:58:47;;;;;;;12.48;5.72;;;19.80;99.90;;;;;;5031843;28;20112;-51
2023/03/06 10:01:33;;;;;;;10.15;5.15;;;19.80;99.90;;;;;;5025126;28;20092;-50
2023/03/06 10:04:20;;;;;;;6.78;4.75;;;19.80;99.90;;;;;;5027296;28;20113;-50
2023/03/06 10:06:50;;;;;;;12.48;6.78;;;19.90;99.90;;;;;;5024202;28;20379;-50
2023/03/06 10:09:21;;;;;;;16.02;5.28;;;19.80;99.90;;;;;;5031903;28;20030;-49
2023/03/06 10:12:18;;;;;;;10.90;5.57;;;19.90;99.90;;;;;;5031688;28;20018;-49
2023/03/06 10:14:48;;;;;;;10.23;5.55;;;19.90;99.90;;;;;;5018713;28;20017;-49
2023/03/06 10:17:17;;;;;;;16.13;6.15;;;19.80;99.90;;;;;;5030297;28;20104;-49
2023/03/06 10:19:43;;;;;;;12.95;6.05;;;19.90;99.90;;;;;;5031595;28;20117;-49
2023/03/06 10:22:18;;;;;;;9.38;5.28;;;19.90;99.90;;;;;;5031809;28;20030;-50
2023/03/06 10:24:52;;;;;;;7.47;5.43;;;19.90;99.90;;;;;;5019319;28;20444;-49
2023/03/06 10:27:50;;;;;;;8.60;5.38;;;19.90;99.90;;;;;;5031576;28;20501;-48
2023/03/06 10:30:18;;;;;;;;;;;19.90;99.90;;;;;;5031904;28;20022;-48
2023/03/06 10:33:07;;;;;;;10.93;6.07;;;19.90;99.90;;;;;;5031497;28;19912;-49
2023/03/06 10:35:45;;;;;;;11.70;5.90;;;19.90;99.90;;;;;;5031607;28;20358;-49
2023/03/06 10:38:36;;;;;;;9.90;5.82;;;19.90;99.90;;;;;;5031737;28;20025;-49
2023/03/06 10:41:10;;;;;;;9.73;5.80;;;19.90;99.90;;;;;;5029976;28;20108;-49
2023/03/06 10:43:38;;;;;;;9.32;5.53;;;19.90;99.90;;;;;;5031290;28;20030;-49
2023/03/06 10:46:05;;;;;;;9.52;5.72;;;19.90;99.90;;;;;;5031447;28;20374;-48
2023/03/06 10:48:34;;;;;;;9.13;5.38;;;19.90;99.90;;;;;;5031516;28;20496;-48
2023/03/06 10:51:18;;;;;;;11.68;6.32;;;19.90;99.90;;;;;;5031329;28;20025;-49
2023/03/06 10:53:53;;;;;;;11.32;5.72;;;19.90;99.90;;;;;;5031368;28;20083;-49
2023/03/06 10:56:32;;;;;;;9.75;5.28;;;19.90;99.90;;;;;;5031354;28;20500;-48
2023/03/06 10:59:07;;;;;;;13.13;5.97;;;19.90;99.90;;;;;;5031497;28;20452;-48
2023/03/06 11:01:34;;;;;;;12.10;6.45;;;19.90;99.90;;;;;;5034057;28;20064;-49
2023/03/06 11:04:19;;;;;;;12.07;5.90;;;19.90;99.90;;;;;;5034850;28;20397;-49
2023/03/06 11:06:45;;;;;;;10.52;5.65;;;19.90;99.90;;;;;;5034902;28;20021;-49
2023/03/06 11:09:23;;;;;;;10.55;6.22;;;20.00;99.90;;;;;;5034837;28;20027;-49
2023/03/06 11:11:49;;;;;;;12.40;5.88;;;19.90;99.90;;;;;;5034865;28;20040;-49
2023/03/06 11:14:19;;;;;;;9.95;6.38;;;19.90;99.90;;;;;;5034625;28;20024;-50
2023/03/06 11:16:53;;;;;;;18.25;6.72;;;20.00;99.90;;;;;;5034779;28;20091;-50
2023/03/06 11:19:25;;;;;;;9.93;5.43;;;19.90;99.90;;;;;;5034527;28;20045;-49
2023/03/06 11:22:17;;;;;;;12.40;6.75;;;20.00;99.90;;;;;;5033381;28;20034;-50
2023/03/06 11:24:50;;;;;;;14.32;6.05;;;20.00;99.90;;;;;;5034767;28;20025;-50
2023/03/06 11:27:35;;;;;;;15.48;6.95;;;20.00;99.90;;;;;;5034257;28;20022;-49
2023/03/06 11:30:13;;;;;;;12.48;6.65;;;20.10;99.90;;;;;;5034652;28;20029;-49
2023/03/06 11:32:44;;;;;;;16.30;7.90;;;20.00;99.90;;;;;;5034127;28;20052;-49
2023/03/06 11:35:22;;;;;;;16.65;7.50;;;20.10;99.90;;;;;;5034513;28;20025;-49
2023/03/06 11:37:59;;;;;;;14.38;7.90;;;20.10;99.90;;;;;;5034258;28;20022;-49
2023/03/06 11:40:35;;;;;;;14.80;9.48;;;20.20;99.90;;;;;;5034128;28;20478;-49
2023/03/06 11:43:12;;;;;;;18.08;8.52;;;20.20;99.90;;;;;;5034248;28;20037;-49
2023/03/06 11:46:17;;;;;;;16.83;9.00;;;20.20;99.90;;;;;;5033871;28;20151;-49
2023/03/06 11:48:57;;;;;;;16.33;9.90;;;20.20;99.90;;;;;;5034428;28;20068;-49
2023/03/06 11:51:30;;;;;;;18.85;10.65;;;20.30;99.90;;;;;;5016591;28;20029;-50
2023/03/06 11:53:58;;;;;;;20.42;9.48;;;20.30;99.90;;;;;;5033791;28;20037;-50
2023/03/06 11:56:35;;;;;;;16.20;10.40;;;20.30;99.90;;;;;;5034080;28;20034;-50
2023/03/06 11:59:01;;;;;;;14.63;9.63;;;20.30;99.90;;;;;;5033916;28;20097;-50
2023/03/06 12:01:37;;;;;;;17.00;10.65;;;20.40;99.90;;;;;;5033528;28;20467;-50
2023/03/06 12:04:25;;;;;;;19.27;10.83;;;20.40;99.90;;;;;;5033883;28;20060;-50
2023/03/06 12:07:15;;;;;;;17.40;10.82;;;20.40;99.90;;;;;;5033595;28;20263;-50
2023/03/06 12:09:47;;;;;;;17.48;10.48;;;20.40;99.90;;;;;;5033699;28;20450;-50
2023/03/06 12:12:43;;;;;;;18.15;10.00;;;20.40;99.90;;;;;;5033634;28;20029;-50
2023/03/06 12:15:23;;;;;;;15.20;10.37;;;20.40;99.90;;;;;;5033309;28;20108;-50
2023/03/06 12:18:15;;;;;;;18.33;9.85;;;20.40;99.90;;;;;;5033649;28;20014;-51
2023/03/06 12:21:32;;;;;;;16.30;10.00;;;20.50;99.90;;;;;;5023677;28;20017;-50
2023/03/06 12:24:22;;;;;;;16.88;9.52;;;20.50;99.90;;;;;;5008895;28;20042;-50
2023/03/06 12:27:04;;;;;;;21.33;9.65;;;20.50;99.90;;;;;;5026767;28;20025;-49
2023/03/06 12:29:45;;;;;;;31.38;10.88;;;20.50;99.90;;;;;;5033212;28;20028;-50
2023/03/06 12:32:38;;;;;;;28.70;11.15;;;20.50;99.90;;;;;;5032109;28;20049;-50
2023/03/06 12:35:37;;;;;;;21.85;9.48;;;20.50;99.90;;;;;;5020492;28;20030;-50
2023/03/06 12:38:14;;;;;;;22.10;10.57;;;20.60;99.90;;;;;;5032881;28;20080;-50
2023/03/06 12:40:43;;;;;;;;;;;20.60;99.90;;;;;;5033648;28;20508;-49
2023/03/06 12:43:39;;;;;;;19.75;9.98;;;20.70;99.90;;;;;;5032746;28;19905;-51
2023/03/06 12:46:19;;;;;;;24.85;10.45;;;20.70;99.90;;;;;;5031952;28;20363;-50
2023/03/06 12:48:56;;;;;;;18.88;10.18;;;20.70;99.90;;;;;;5012925;28;20136;-49
2023/03/06 12:51:22;;;;;;;25.48;10.68;;;20.70;99.90;;;;;;5030599;28;20084;-49
2023/03/06 12:53:50;;;;;;;21.92;11.68;;;20.70;99.90;;;;;;5032892;28;20033;-50
2023/03/06 12:56:17;;;;;;;21.92;11.15;;;20.70;99.90;;;;;;5032787;28;20045;-50